createdAt,value
2017-03-29T00:01:01.737Z,3.53
2017-03-29T00:02:11.991Z,3.55
2017-03-29T00:03:22.248Z,3.56
2017-03-29T00:04:32.195Z,3.46
2017-03-29T00:05:42.447Z,3.48
2017-03-29T00:06:52.720Z,3.45
2017-03-29T00:08:02.663Z,3.59
2017-03-29T00:09:12.602Z,3.58
2017-03-29T00:10:22.860Z,3.52
2017-03-29T00:11:33.109Z,3.49
2017-03-29T00:12:43.364Z,3.45
2017-03-29T00:13:53.622Z,3.45
2017-03-29T00:15:03.884Z,3.46
2017-03-29T00:16:14.171Z,3.49
2017-03-29T00:17:24.440Z,3.5
2017-03-29T00:18:34.702Z,3.48
2017-03-29T00:19:44.955Z,3.48
2017-03-29T00:20:55.213Z,3.45
2017-03-29T00:22:05.475Z,3.4
2017-03-29T00:23:15.416Z,3.45
2017-03-29T00:24:25.352Z,3.41
2017-03-29T00:25:35.298Z,3.34
2017-03-29T00:26:45.561Z,3.33
2017-03-29T00:27:55.820Z,3.34
2017-03-29T00:29:06.081Z,3.41
2017-03-29T00:30:16.334Z,3.34
2017-03-29T00:31:26.592Z,3.29
2017-03-29T00:32:36.852Z,3.31
2017-03-29T00:33:47.106Z,3.3
2017-03-29T00:34:57.361Z,3.33
2017-03-29T00:36:07.621Z,3.37
2017-03-29T00:37:17.879Z,3.33
2017-03-29T00:38:27.815Z,3.46
2017-03-29T00:39:37.755Z,3.45
2017-03-29T00:40:48.009Z,3.31
2017-03-29T00:41:58.264Z,3.31
2017-03-29T00:43:08.218Z,3.27
2017-03-29T00:44:18.472Z,3.34
2017-03-29T00:45:28.726Z,3.27
2017-03-29T00:46:38.982Z,3.36
2017-03-29T00:47:51.273Z,3.37
2017-03-29T00:49:01.535Z,3.3
2017-03-29T00:50:11.790Z,3.4
2017-03-29T00:51:21.734Z,3.43
2017-03-29T00:52:31.692Z,3.34
2017-03-29T00:53:42.045Z,3.37
2017-03-29T00:54:52.300Z,3.31
2017-03-29T00:56:02.558Z,3.34
2017-03-29T00:57:12.817Z,3.29
2017-03-29T00:58:23.069Z,3.33
2017-03-29T00:59:33.327Z,3.27
2017-03-29T01:00:43.582Z,3.3
2017-03-29T01:01:53.549Z,3.29
2017-03-29T01:03:03.804Z,3.21
2017-03-29T01:04:14.060Z,3.27
2017-03-29T01:05:26.886Z,3.34
2017-03-29T01:06:36.837Z,3.24
2017-03-29T01:07:47.094Z,3.16
2017-03-29T01:08:57.354Z,3.22
2017-03-29T01:10:07.611Z,3.29
2017-03-29T01:11:17.866Z,3.19
2017-03-29T01:12:28.123Z,3.31
2017-03-29T01:13:38.373Z,3.3
2017-03-29T01:14:48.633Z,3.26
2017-03-29T01:15:58.898Z,3.27
2017-03-29T01:17:09.152Z,3.15
2017-03-29T01:18:19.429Z,3.15
2017-03-29T01:19:29.691Z,3.16
2017-03-29T01:20:39.948Z,3.18
2017-03-29T01:21:50.202Z,3.15
2017-03-29T01:23:00.470Z,3.21
2017-03-29T01:24:10.404Z,3.18
2017-03-29T01:25:20.659Z,3.13
2017-03-29T01:26:30.605Z,3.22
2017-03-29T01:27:40.862Z,3.12
2017-03-29T01:28:51.121Z,3.21
2017-03-29T01:30:01.058Z,3.11
2017-03-29T01:31:11.004Z,3
2017-03-29T01:32:21.257Z,3.08
2017-03-29T01:33:31.517Z,3.03
2017-03-29T01:34:41.452Z,3
2017-03-29T01:35:51.741Z,3.01
2017-03-29T01:37:01.993Z,3.06
2017-03-29T01:38:11.937Z,3.12
2017-03-29T01:39:22.187Z,3.03
2017-03-29T01:40:32.442Z,3.08
2017-03-29T01:41:42.696Z,3.06
2017-03-29T01:42:52.947Z,3.12
2017-03-29T01:44:03.198Z,3.09
2017-03-29T01:45:13.450Z,3.11
2017-03-29T01:46:23.709Z,3.03
2017-03-29T01:47:33.651Z,3.06
2017-03-29T01:48:43.908Z,3.09
2017-03-29T01:49:54.169Z,2.97
2017-03-29T01:51:04.433Z,3.03
2017-03-29T01:52:14.692Z,3.01
2017-03-29T01:53:24.951Z,3.01
2017-03-29T01:54:35.210Z,3
2017-03-29T01:55:45.463Z,3.09
2017-03-29T01:56:55.717Z,2.97
2017-03-29T01:58:05.662Z,3.08
2017-03-29T01:59:15.949Z,3.01
2017-03-29T02:00:26.202Z,2.95
2017-03-29T02:01:36.458Z,2.93
2017-03-29T02:02:46.715Z,2.94
2017-03-29T02:03:56.986Z,2.95
2017-03-29T02:05:07.249Z,2.91
2017-03-29T02:06:17.509Z,2.93
2017-03-29T02:07:27.767Z,2.97
2017-03-29T02:08:37.731Z,2.91
2017-03-29T02:09:47.987Z,2.93
2017-03-29T02:10:58.273Z,2.95
2017-03-29T02:12:07.586Z,2.94
2017-03-29T02:13:17.836Z,2.97
2017-03-29T02:14:28.090Z,2.95
2017-03-29T02:15:38.346Z,2.93
2017-03-29T02:16:48.601Z,2.93
2017-03-29T02:17:58.860Z,2.94
2017-03-29T02:19:09.120Z,3.03
2017-03-29T02:20:19.377Z,3
2017-03-29T02:21:29.636Z,2.97
2017-03-29T02:22:39.891Z,2.98
2017-03-29T02:23:50.149Z,2.88
2017-03-29T02:25:00.396Z,2.91
2017-03-29T02:26:10.337Z,2.91
2017-03-29T02:27:20.628Z,2.93
2017-03-29T02:28:30.883Z,2.91
2017-03-29T02:29:41.138Z,2.85
2017-03-29T02:30:51.079Z,2.87
2017-03-29T02:32:01.339Z,2.9
2017-03-29T02:33:11.279Z,2.91
2017-03-29T02:34:21.533Z,2.93
2017-03-29T02:35:31.790Z,2.79
2017-03-29T02:36:41.740Z,2.93
2017-03-29T02:37:51.993Z,2.93
2017-03-29T02:39:02.247Z,2.91
2017-03-29T02:40:12.189Z,2.83
2017-03-29T02:41:22.474Z,2.76
2017-03-29T02:42:32.733Z,2.76
2017-03-29T02:43:42.991Z,2.72
2017-03-29T02:44:53.251Z,2.79
2017-03-29T02:46:03.521Z,2.77
2017-03-29T02:47:13.789Z,2.7
2017-03-29T02:48:24.083Z,2.76
2017-03-29T02:49:34.336Z,2.7
2017-03-29T02:50:44.591Z,2.73
2017-03-29T02:51:54.848Z,2.79
2017-03-29T02:53:05.098Z,2.76
2017-03-29T02:54:15.360Z,2.79
2017-03-29T02:55:25.618Z,2.69
2017-03-29T02:56:35.873Z,2.77
2017-03-29T02:57:46.135Z,2.76
2017-03-29T02:58:56.079Z,2.73
2017-03-29T03:00:06.335Z,2.79
2017-03-29T03:01:16.593Z,2.77
2017-03-29T03:02:26.846Z,2.7
2017-03-29T03:03:36.792Z,2.76
2017-03-29T03:04:47.052Z,2.76
2017-03-29T03:05:57.309Z,2.79
2017-03-29T03:07:07.571Z,2.76
2017-03-29T03:08:17.822Z,2.69
2017-03-29T03:09:27.772Z,2.73
2017-03-29T03:10:38.028Z,2.73
2017-03-29T03:11:48.282Z,2.76
2017-03-29T03:12:58.544Z,2.64
2017-03-29T03:14:08.803Z,2.62
2017-03-29T03:15:19.061Z,2.64
2017-03-29T03:16:29.312Z,2.68
2017-03-29T03:17:39.246Z,2.7
2017-03-29T03:18:49.496Z,2.62
2017-03-29T03:19:59.441Z,2.68
2017-03-29T03:21:09.392Z,2.62
2017-03-29T03:22:19.645Z,2.73
2017-03-29T03:23:29.897Z,2.64
2017-03-29T03:24:39.834Z,2.57
2017-03-29T03:25:50.094Z,2.57
2017-03-29T03:27:00.351Z,2.65
2017-03-29T03:28:10.606Z,2.62
2017-03-29T03:29:20.865Z,2.55
2017-03-29T03:30:31.118Z,2.68
2017-03-29T03:31:41.374Z,2.59
2017-03-29T03:32:51.625Z,2.58
2017-03-29T03:34:01.877Z,2.62
2017-03-29T03:35:11.814Z,2.62
2017-03-29T03:36:22.071Z,2.52
2017-03-29T03:37:32.010Z,2.64
2017-03-29T03:38:42.262Z,2.58
2017-03-29T03:39:52.517Z,2.5
2017-03-29T03:41:02.457Z,2.51
2017-03-29T03:42:12.712Z,2.52
2017-03-29T03:43:22.971Z,2.5
2017-03-29T03:44:32.909Z,2.54
2017-03-29T03:45:42.848Z,2.55
2017-03-29T03:46:53.099Z,2.54
2017-03-29T03:48:03.038Z,2.55
2017-03-29T03:49:13.316Z,2.61
2017-03-29T03:50:23.572Z,2.57
2017-03-29T03:51:33.830Z,2.58
2017-03-29T03:52:43.767Z,2.58
2017-03-29T03:53:53.705Z,2.58
2017-03-29T03:55:03.643Z,2.62
2017-03-29T03:56:13.896Z,2.58
2017-03-29T03:57:24.144Z,2.54
2017-03-29T03:58:34.401Z,2.52
2017-03-29T03:59:44.658Z,2.51
2017-03-29T04:00:54.924Z,2.52
2017-03-29T04:02:05.181Z,2.5
2017-03-29T04:03:15.442Z,2.57
2017-03-29T04:04:25.693Z,2.5
2017-03-29T04:05:35.946Z,2.46
2017-03-29T04:06:46.196Z,2.5
2017-03-29T04:07:56.456Z,2.46
2017-03-29T04:09:06.729Z,2.5
2017-03-29T04:10:16.983Z,2.46
2017-03-29T04:11:27.252Z,2.5
2017-03-29T04:12:37.534Z,2.52
2017-03-29T04:13:47.785Z,2.51
2017-03-29T04:14:58.039Z,2.44
2017-03-29T04:16:08.301Z,2.47
2017-03-29T04:17:18.564Z,2.51
2017-03-29T04:18:28.817Z,2.47
2017-03-29T04:19:38.758Z,2.5
2017-03-29T04:20:49.014Z,2.41
2017-03-29T04:21:59.270Z,2.51
2017-03-29T04:23:09.563Z,2.4
2017-03-29T04:24:19.810Z,2.44
2017-03-29T04:25:29.755Z,2.4
2017-03-29T04:26:40.023Z,2.43
2017-03-29T04:27:50.273Z,2.47
2017-03-29T04:29:00.525Z,2.4
2017-03-29T04:30:10.778Z,2.43
2017-03-29T04:31:21.032Z,2.41
2017-03-29T04:32:31.289Z,2.39
2017-03-29T04:33:41.538Z,2.39
2017-03-29T04:34:51.486Z,2.34
2017-03-29T04:36:01.746Z,2.36
2017-03-29T04:37:12.000Z,2.39
2017-03-29T04:38:21.938Z,2.36
2017-03-29T04:39:31.890Z,2.36
2017-03-29T04:40:42.148Z,2.36
2017-03-29T04:41:52.400Z,2.36
2017-03-29T04:43:02.659Z,2.44
2017-03-29T04:44:12.603Z,2.41
2017-03-29T04:45:22.858Z,2.39
2017-03-29T04:46:33.110Z,2.33
2017-03-29T04:47:43.367Z,2.33
2017-03-29T04:48:53.621Z,2.34
2017-03-29T04:50:03.557Z,2.28
2017-03-29T04:51:13.491Z,2.33
2017-03-29T04:52:23.743Z,2.34
2017-03-29T04:53:34.001Z,2.36
2017-03-29T04:54:44.253Z,2.22
2017-03-29T04:55:54.510Z,2.32
2017-03-29T04:57:04.760Z,2.19
2017-03-29T04:58:15.015Z,2.19
2017-03-29T04:59:24.958Z,2.22
2017-03-29T05:00:35.213Z,2.19
2017-03-29T05:01:45.467Z,2.18
2017-03-29T05:02:55.723Z,2.19
2017-03-29T05:04:05.985Z,2.21
2017-03-29T05:05:16.240Z,2.22
2017-03-29T05:06:26.493Z,2.19
2017-03-29T05:07:36.748Z,2.23
2017-03-29T05:08:47.002Z,2.22
2017-03-29T05:09:57.257Z,2.21
2017-03-29T05:11:07.201Z,2.28
2017-03-29T05:12:17.456Z,2.19
2017-03-29T05:13:27.093Z,2.19
2017-03-29T05:14:37.347Z,2.25
2017-03-29T05:15:47.605Z,2.22
2017-03-29T05:16:57.548Z,2.25
2017-03-29T05:18:07.799Z,2.26
2017-03-29T05:19:17.742Z,2.21
2017-03-29T05:20:27.999Z,2.19
2017-03-29T05:21:38.264Z,2.16
2017-03-29T05:22:48.533Z,2.16
2017-03-29T05:23:58.793Z,2.22
2017-03-29T05:25:09.053Z,2.25
2017-03-29T05:26:18.996Z,2.21
2017-03-29T05:27:29.253Z,2.19
2017-03-29T05:28:39.507Z,2.19
2017-03-29T05:29:49.767Z,2.28
2017-03-29T05:30:59.712Z,2.19
2017-03-29T05:32:10.006Z,2.18
2017-03-29T05:33:20.257Z,2.19
2017-03-29T05:34:30.197Z,2.28
2017-03-29T05:35:40.455Z,2.22
2017-03-29T05:36:50.710Z,2.21
2017-03-29T05:38:00.664Z,2.3
2017-03-29T05:39:10.603Z,2.33
2017-03-29T05:40:20.860Z,2.28
2017-03-29T05:41:31.122Z,2.37
2017-03-29T05:42:41.378Z,2.34
2017-03-29T05:43:51.629Z,2.34
2017-03-29T05:45:01.882Z,2.34
2017-03-29T05:46:12.137Z,2.33
2017-03-29T05:47:22.073Z,2.23
2017-03-29T05:48:32.013Z,2.33
2017-03-29T05:49:42.281Z,2.28
2017-03-29T05:50:52.531Z,2.33
2017-03-29T05:52:02.786Z,2.26
2017-03-29T05:53:13.039Z,2.4
2017-03-29T05:54:23.293Z,2.37
2017-03-29T05:55:33.541Z,2.39
2017-03-29T05:56:43.797Z,2.34
2017-03-29T05:57:54.087Z,2.41
2017-03-29T05:59:04.345Z,2.37
2017-03-29T06:00:14.604Z,2.36
2017-03-29T06:01:24.867Z,2.36
2017-03-29T06:02:35.124Z,2.37
2017-03-29T06:03:45.380Z,2.39
2017-03-29T06:04:55.347Z,2.39
2017-03-29T06:06:05.612Z,2.34
2017-03-29T06:07:15.558Z,2.39
2017-03-29T06:08:25.497Z,2.37
2017-03-29T06:09:35.752Z,2.39
2017-03-29T06:10:45.694Z,2.37
2017-03-29T06:11:55.950Z,2.39
2017-03-29T06:13:06.208Z,2.4
2017-03-29T06:14:16.468Z,2.41
2017-03-29T06:15:26.738Z,2.34
2017-03-29T06:16:36.989Z,2.39
2017-03-29T06:17:47.244Z,2.39
2017-03-29T06:18:57.497Z,2.39
2017-03-29T06:20:07.757Z,2.43
2017-03-29T06:21:18.022Z,2.41
2017-03-29T06:22:28.277Z,2.39
2017-03-29T06:23:38.213Z,2.46
2017-03-29T06:24:48.468Z,2.4
2017-03-29T06:25:58.723Z,2.54
2017-03-29T06:27:08.973Z,2.51
2017-03-29T06:28:19.231Z,2.5
2017-03-29T06:29:29.483Z,2.46
2017-03-29T06:30:39.742Z,2.47
2017-03-29T06:31:50.005Z,2.52
2017-03-29T06:33:00.263Z,2.47
2017-03-29T06:34:10.521Z,2.5
2017-03-29T06:35:20.778Z,2.5
2017-03-29T06:36:31.038Z,2.5
2017-03-29T06:37:41.287Z,2.54
2017-03-29T06:38:51.228Z,2.52
2017-03-29T06:40:01.484Z,2.51
2017-03-29T06:41:11.747Z,2.52
2017-03-29T06:42:21.997Z,2.57
2017-03-29T06:43:32.252Z,2.55
2017-03-29T06:44:42.517Z,2.52
2017-03-29T06:45:52.772Z,2.51
2017-03-29T06:47:02.733Z,2.65
2017-03-29T06:48:12.988Z,2.59
2017-03-29T06:49:23.240Z,2.61
2017-03-29T06:50:33.191Z,2.58
2017-03-29T06:51:43.142Z,2.73
2017-03-29T06:52:53.401Z,2.62
2017-03-29T06:54:03.656Z,2.68
2017-03-29T06:55:13.913Z,2.61
2017-03-29T06:56:24.338Z,2.61
2017-03-29T06:57:34.587Z,2.64
2017-03-29T06:58:44.847Z,2.52
2017-03-29T06:59:55.107Z,2.61
2017-03-29T07:01:05.366Z,2.59
2017-03-29T07:02:15.615Z,2.61
2017-03-29T07:03:25.864Z,2.68
2017-03-29T07:04:36.384Z,2.62
2017-03-29T07:05:46.907Z,2.68
2017-03-29T07:06:57.179Z,2.61
2017-03-29T07:08:07.433Z,2.72
2017-03-29T07:09:17.367Z,2.62
2017-03-29T07:10:27.630Z,2.62
2017-03-29T07:11:37.887Z,2.64
2017-03-29T07:12:48.146Z,2.73
2017-03-29T07:13:58.090Z,2.62
2017-03-29T07:15:07.722Z,2.79
2017-03-29T07:16:17.987Z,2.72
2017-03-29T07:17:27.932Z,2.75
2017-03-29T07:18:38.222Z,2.8
2017-03-29T07:19:47.534Z,2.79
2017-03-29T07:20:57.790Z,2.8
2017-03-29T07:22:08.055Z,2.9
2017-03-29T07:23:18.315Z,2.87
2017-03-29T07:24:28.573Z,2.85
2017-03-29T07:25:38.833Z,2.91
2017-03-29T07:26:49.091Z,2.9
2017-03-29T07:27:59.354Z,2.97
2017-03-29T07:29:09.630Z,2.94
2017-03-29T07:30:19.886Z,2.91
2017-03-29T07:31:30.141Z,2.98
2017-03-29T07:32:40.404Z,2.95
2017-03-29T07:33:50.666Z,2.88
2017-03-29T07:35:00.603Z,2.98
2017-03-29T07:36:10.540Z,2.9
2017-03-29T07:37:20.801Z,2.91
2017-03-29T07:38:31.064Z,2.97
2017-03-29T07:39:41.005Z,2.98
2017-03-29T07:40:51.270Z,3.03
2017-03-29T07:42:01.209Z,3.06
2017-03-29T07:43:11.471Z,3.03
2017-03-29T07:44:21.736Z,3.12
2017-03-29T07:45:31.999Z,3.12
2017-03-29T07:46:41.954Z,3.01
2017-03-29T07:47:52.208Z,3.15
2017-03-29T07:49:02.466Z,3.09
2017-03-29T07:50:12.727Z,3.16
2017-03-29T07:51:22.983Z,3.15
2017-03-29T07:52:33.259Z,3.21
2017-03-29T07:53:43.514Z,3.18
2017-03-29T07:54:53.775Z,3.19
2017-03-29T07:56:03.720Z,3.26
2017-03-29T07:57:13.977Z,3.18
2017-03-29T07:58:23.912Z,3.34
2017-03-29T07:59:33.850Z,3.33
2017-03-29T08:00:44.115Z,3.34
2017-03-29T08:01:54.055Z,3.3
2017-03-29T08:03:04.024Z,3.3
2017-03-29T08:04:14.281Z,3.41
2017-03-29T08:05:24.537Z,3.31
2017-03-29T08:06:34.479Z,3.45
2017-03-29T08:07:44.733Z,3.37
2017-03-29T08:08:54.362Z,3.41
2017-03-29T08:10:04.622Z,3.37
2017-03-29T08:11:14.573Z,3.43
2017-03-29T08:12:24.518Z,3.41
2017-03-29T08:13:34.770Z,3.43
2017-03-29T08:14:45.027Z,3.46
2017-03-29T08:15:55.281Z,3.4
2017-03-29T08:17:05.543Z,3.31
2017-03-29T08:18:15.489Z,3.4
2017-03-29T08:19:25.439Z,3.43
2017-03-29T08:20:35.687Z,3.46
2017-03-29T08:21:45.636Z,3.45
2017-03-29T08:22:55.579Z,3.49
2017-03-29T08:24:05.841Z,3.49
2017-03-29T08:25:16.107Z,3.41
2017-03-29T08:26:26.354Z,3.55
2017-03-29T08:27:36.293Z,3.49
2017-03-29T08:28:46.234Z,3.64
2017-03-29T08:29:56.177Z,3.7
2017-03-29T08:31:06.431Z,3.58
2017-03-29T08:32:16.687Z,3.53
2017-03-29T08:33:26.938Z,3.64
2017-03-29T08:34:37.217Z,3.61
2017-03-29T08:35:47.168Z,3.66
2017-03-29T08:36:57.423Z,3.58
2017-03-29T08:38:07.065Z,3.67
2017-03-29T08:39:17.325Z,3.7
2017-03-29T08:40:27.269Z,3.71
2017-03-29T08:41:36.900Z,3.76
2017-03-29T08:42:46.838Z,3.74
2017-03-29T08:43:57.092Z,3.81
2017-03-29T08:45:07.345Z,3.76
2017-03-29T08:46:17.638Z,3.86
2017-03-29T08:47:27.585Z,3.81
2017-03-29T08:48:37.525Z,3.76
2017-03-29T08:49:47.786Z,3.94
2017-03-29T08:50:57.727Z,3.91
2017-03-29T08:52:07.983Z,3.99
2017-03-29T08:53:17.934Z,3.95
2017-03-29T08:54:28.189Z,4.16
2017-03-29T08:55:38.126Z,4.12
2017-03-29T08:56:48.402Z,4.1
2017-03-29T08:57:58.337Z,4.09
2017-03-29T08:59:08.596Z,4.16
2017-03-29T09:00:18.857Z,4.18
2017-03-29T09:01:29.131Z,4.21
2017-03-29T09:02:39.385Z,4.13
2017-03-29T09:03:49.643Z,4.18
2017-03-29T09:04:59.911Z,4.32
2017-03-29T09:06:10.167Z,4.36
2017-03-29T09:07:20.427Z,4.39
2017-03-29T09:08:30.682Z,4.3
2017-03-29T09:09:40.941Z,4.32
2017-03-29T09:10:51.196Z,4.36
2017-03-29T09:12:01.140Z,4.39
2017-03-29T09:13:11.078Z,4.38
2017-03-29T09:14:21.331Z,4.38
2017-03-29T09:15:31.588Z,4.48
2017-03-29T09:16:41.845Z,4.42
2017-03-29T09:17:52.117Z,4.45
2017-03-29T09:19:02.067Z,4.56
2017-03-29T09:20:12.011Z,4.58
2017-03-29T09:21:22.272Z,4.56
2017-03-29T09:22:32.527Z,4.67
2017-03-29T09:23:42.475Z,4.6
2017-03-29T09:24:52.734Z,4.58
2017-03-29T09:26:02.991Z,4.61
2017-03-29T09:27:13.246Z,4.67
2017-03-29T09:28:23.506Z,4.61
2017-03-29T09:29:33.766Z,4.7
2017-03-29T09:30:44.029Z,4.78
2017-03-29T09:31:53.969Z,4.79
2017-03-29T09:33:04.234Z,4.82
2017-03-29T09:34:14.493Z,4.86
2017-03-29T09:35:24.446Z,4.92
2017-03-29T09:36:34.391Z,4.95
2017-03-29T09:37:44.652Z,5.01
2017-03-29T09:38:54.601Z,5.04
2017-03-29T09:40:04.545Z,5.01
2017-03-29T09:41:14.493Z,5.04
2017-03-29T09:42:24.749Z,5.1
2017-03-29T09:43:35.011Z,5.07
2017-03-29T09:44:45.277Z,5.15
2017-03-29T09:45:55.541Z,5.28
2017-03-29T09:47:05.803Z,5.25
2017-03-29T09:48:16.063Z,5.25
2017-03-29T09:49:26.339Z,5.22
2017-03-29T09:50:36.604Z,5.33
2017-03-29T09:51:46.865Z,5.33
2017-03-29T09:52:57.128Z,5.4
2017-03-29T09:54:07.388Z,5.51
2017-03-29T09:55:17.017Z,5.51
2017-03-29T09:56:27.278Z,5.59
2017-03-29T09:57:37.553Z,5.67
2017-03-29T09:58:47.816Z,5.77
2017-03-29T09:59:58.075Z,5.72
2017-03-29T10:01:08.339Z,5.83
2017-03-29T10:02:18.602Z,5.74
2017-03-29T10:03:28.861Z,5.81
2017-03-29T10:04:39.147Z,5.74
2017-03-29T10:05:49.416Z,5.83
2017-03-29T10:06:59.360Z,5.81
2017-03-29T10:08:09.616Z,5.79
2017-03-29T10:09:19.246Z,5.76
2017-03-29T10:10:29.192Z,5.81
2017-03-29T10:11:39.453Z,5.81
2017-03-29T10:12:49.710Z,5.81
2017-03-29T10:13:59.967Z,5.98
2017-03-29T10:15:10.230Z,5.87
2017-03-29T10:16:20.173Z,5.91
2017-03-29T10:17:30.433Z,5.9
2017-03-29T10:18:40.695Z,5.88
2017-03-29T10:19:50.958Z,5.77
2017-03-29T10:21:01.221Z,5.77
2017-03-29T10:22:11.486Z,5.7
2017-03-29T10:23:21.433Z,5.8
2017-03-29T10:24:31.684Z,5.74
2017-03-29T10:25:41.943Z,5.76
2017-03-29T10:26:52.209Z,5.67
2017-03-29T10:28:02.473Z,5.55
2017-03-29T10:29:12.733Z,5.76
2017-03-29T10:30:22.680Z,5.76
2017-03-29T10:31:32.940Z,5.92
2017-03-29T10:32:43.198Z,5.91
2017-03-29T10:33:53.458Z,5.55
2017-03-29T10:35:03.406Z,5.65
2017-03-29T10:36:13.355Z,5.74
2017-03-29T10:37:23.627Z,5.81
2017-03-29T10:38:34.187Z,5.73
2017-03-29T10:39:44.450Z,5.36
2017-03-29T10:40:54.706Z,5.16
2017-03-29T10:42:04.652Z,5.29
2017-03-29T10:43:14.908Z,5
2017-03-29T10:44:25.255Z,4.92
2017-03-29T10:45:35.517Z,4.86
2017-03-29T10:46:45.470Z,4.75
2017-03-29T10:47:55.739Z,4.66
2017-03-29T10:49:06.000Z,4.67
2017-03-29T10:50:16.265Z,4.83
2017-03-29T10:51:26.209Z,5.04
2017-03-29T10:52:36.502Z,5
2017-03-29T10:53:46.765Z,4.98
2017-03-29T10:54:56.715Z,4.92
2017-03-29T10:56:07.087Z,4.78
2017-03-29T10:57:17.344Z,4.79
2017-03-29T10:58:27.606Z,4.76
2017-03-29T10:59:37.872Z,4.86
2017-03-29T11:00:47.821Z,5.04
2017-03-29T11:01:58.082Z,5.12
2017-03-29T11:03:08.348Z,5.22
2017-03-29T11:04:18.621Z,5.31
2017-03-29T11:05:28.880Z,5.41
2017-03-29T11:06:39.146Z,5.49
2017-03-29T11:07:49.418Z,5.38
2017-03-29T11:08:59.676Z,5.43
2017-03-29T11:10:09.629Z,5.54
2017-03-29T11:11:19.886Z,5.55
2017-03-29T11:12:29.524Z,5.7
2017-03-29T11:13:39.782Z,5.88
2017-03-29T11:14:50.046Z,6.05
2017-03-29T11:16:00.006Z,6.17
2017-03-29T11:17:09.954Z,6.28
2017-03-29T11:18:20.212Z,6.46
2017-03-29T11:19:30.476Z,6.34
2017-03-29T11:20:40.735Z,6.26
2017-03-29T11:21:51.003Z,6.38
2017-03-29T11:23:00.952Z,6.44
2017-03-29T11:24:10.897Z,6.47
2017-03-29T11:25:21.158Z,6.59
2017-03-29T11:26:31.422Z,6.74
2017-03-29T11:27:41.372Z,6.67
2017-03-29T11:28:51.011Z,6.65
2017-03-29T11:30:01.277Z,6.74
2017-03-29T11:31:11.537Z,7.01
2017-03-29T11:32:21.795Z,7.04
2017-03-29T11:33:32.054Z,7.19
2017-03-29T11:34:42.000Z,6.97
2017-03-29T11:35:51.640Z,7.18
2017-03-29T11:37:00.973Z,7.23
2017-03-29T11:38:10.925Z,7.56
2017-03-29T11:39:21.180Z,7.53
2017-03-29T11:40:31.450Z,7.48
2017-03-29T11:41:41.713Z,7.4
2017-03-29T11:42:51.350Z,7.41
2017-03-29T11:44:01.604Z,7.37
2017-03-29T11:45:11.551Z,7.26
2017-03-29T11:46:21.814Z,7.21
2017-03-29T11:47:31.765Z,7.21
2017-03-29T11:48:42.033Z,7.41
2017-03-29T11:49:52.299Z,7.75
2017-03-29T11:51:02.568Z,8.03
2017-03-29T11:52:12.829Z,8.28
2017-03-29T11:53:23.093Z,8.57
2017-03-29T11:54:33.382Z,8.63
2017-03-29T11:55:43.648Z,8.69
2017-03-29T11:56:53.910Z,8.87
2017-03-29T11:58:04.188Z,9.22
2017-03-29T11:59:14.457Z,9.54
2017-03-29T12:00:24.720Z,9.56
2017-03-29T12:01:35.014Z,9.66
2017-03-29T12:02:45.283Z,10
2017-03-29T12:03:55.245Z,10
2017-03-29T12:05:05.192Z,10.13
2017-03-29T12:06:15.457Z,10.06
2017-03-29T12:07:25.716Z,9.81
2017-03-29T12:08:35.988Z,9.7
2017-03-29T12:09:45.943Z,9.77
2017-03-29T12:10:56.211Z,10.18
2017-03-29T12:12:06.227Z,10.42
2017-03-29T12:13:16.498Z,11.2
2017-03-29T12:14:26.764Z,11.41
2017-03-29T12:15:37.034Z,11.37
2017-03-29T12:16:47.304Z,11.62
2017-03-29T12:17:57.580Z,12.28
2017-03-29T12:19:07.858Z,13.11
2017-03-29T12:20:18.142Z,13.83
2017-03-29T12:21:27.782Z,14.43
2017-03-29T12:22:37.741Z,15.02
2017-03-29T12:23:47.702Z,15.66
2017-03-29T12:24:57.973Z,16.06
2017-03-29T12:26:08.248Z,16.51
2017-03-29T12:27:18.519Z,16.4
2017-03-29T12:28:28.486Z,15.91
2017-03-29T12:29:38.763Z,16.16
2017-03-29T12:30:49.039Z,16.5
2017-03-29T12:31:58.681Z,16.34
2017-03-29T12:33:08.964Z,15.9
2017-03-29T12:34:19.233Z,16.36
2017-03-29T12:35:29.197Z,16.36
2017-03-29T12:36:39.469Z,16.72
2017-03-29T12:37:49.746Z,16.66
2017-03-29T12:38:59.392Z,16.24
2017-03-29T12:40:09.365Z,16.62
2017-03-29T12:41:19.644Z,17.22
2017-03-29T12:42:29.926Z,17.49
2017-03-29T12:43:40.216Z,18.05
2017-03-29T12:44:50.489Z,18.55
2017-03-29T12:46:00.768Z,19.01
2017-03-29T12:47:11.045Z,18.28
2017-03-29T12:48:21.371Z,17.88
2017-03-29T12:49:31.663Z,18.28
2017-03-29T12:50:41.946Z,18.97
2017-03-29T12:51:51.599Z,19.6
2017-03-29T12:53:01.568Z,19.97
2017-03-29T12:54:11.536Z,20.44
2017-03-29T12:55:21.816Z,20.9
2017-03-29T12:56:32.097Z,20.98
2017-03-29T12:57:42.061Z,21.19
2017-03-29T12:58:52.333Z,21.43
2017-03-29T13:00:02.605Z,21.63
2017-03-29T13:01:12.574Z,21.6
2017-03-29T13:02:22.850Z,21.85
2017-03-29T13:03:33.122Z,22.03
2017-03-29T13:04:43.089Z,22.28
2017-03-29T13:05:53.365Z,22.31
2017-03-29T13:07:03.635Z,22.3
2017-03-29T13:08:13.597Z,22.18
2017-03-29T13:09:23.876Z,22.4
2017-03-29T13:10:34.159Z,22.49
2017-03-29T13:11:44.444Z,22.95
2017-03-29T13:12:54.723Z,22.95
2017-03-29T13:14:04.683Z,23.16
2017-03-29T13:15:14.647Z,23.13
2017-03-29T13:16:24.931Z,22.23
2017-03-29T13:17:35.204Z,22.56
2017-03-29T13:18:45.178Z,22.47
2017-03-29T13:19:55.459Z,22.41
2017-03-29T13:21:05.747Z,22.56
2017-03-29T13:22:16.030Z,22.81
2017-03-29T13:23:25.995Z,23.23
2017-03-29T13:24:35.959Z,23.81
2017-03-29T13:25:46.238Z,24.04
2017-03-29T13:26:56.513Z,23.96
2017-03-29T13:28:06.479Z,23.79
2017-03-29T13:29:16.130Z,23.73
2017-03-29T13:30:26.099Z,23.23
2017-03-29T13:31:36.383Z,23.36
2017-03-29T13:32:46.350Z,23.54
2017-03-29T13:34:00.305Z,23.82
2017-03-29T13:35:10.585Z,23.58
2017-03-29T13:36:20.550Z,23.37
2017-03-29T13:37:30.519Z,22.89
2017-03-29T13:38:40.801Z,21.97
2017-03-29T13:39:50.770Z,21.91
2017-03-29T13:41:01.046Z,21.74
2017-03-29T13:42:11.322Z,21.19
2017-03-29T13:43:21.600Z,20.82
2017-03-29T13:44:31.875Z,20.52
2017-03-29T13:45:42.151Z,20.5
2017-03-29T13:46:52.433Z,20.36
2017-03-29T13:48:02.707Z,20.03
2017-03-29T13:49:12.997Z,19.94
2017-03-29T13:50:23.276Z,19.64
2017-03-29T13:51:33.556Z,19.42
2017-03-29T13:52:43.524Z,19.44
2017-03-29T13:53:53.800Z,19.15
2017-03-29T13:55:03.771Z,18.96
2017-03-29T13:56:13.729Z,18.73
2017-03-29T13:57:23.700Z,18.41
2017-03-29T13:58:33.651Z,18.23
2017-03-29T13:59:43.614Z,18.08
2017-03-29T14:00:53.886Z,17.98
2017-03-29T14:02:04.164Z,17.91
2017-03-29T14:03:14.434Z,17.73
2017-03-29T14:04:24.703Z,17.6
2017-03-29T14:05:34.977Z,17.31
2017-03-29T14:06:45.246Z,17.2
2017-03-29T14:07:55.208Z,16.94
2017-03-29T14:09:05.161Z,16.86
2017-03-29T14:10:15.429Z,16.74
2017-03-29T14:11:25.388Z,16.61
2017-03-29T14:12:35.656Z,16.73
2017-03-29T14:13:45.931Z,16.79
2017-03-29T14:14:55.885Z,17.05
2017-03-29T14:16:06.155Z,17.41
2017-03-29T14:17:16.121Z,17.78
2017-03-29T14:18:26.393Z,18
2017-03-29T14:19:36.657Z,18
2017-03-29T14:20:46.298Z,18.13
2017-03-29T14:21:56.255Z,18.28
2017-03-29T14:23:06.521Z,18.49
2017-03-29T14:24:16.482Z,18.68
2017-03-29T14:25:26.760Z,18.79
2017-03-29T14:26:37.042Z,19.2
2017-03-29T14:27:46.693Z,19.64
2017-03-29T14:28:56.966Z,20.18
2017-03-29T14:30:06.924Z,20.67
2017-03-29T14:31:17.194Z,20.92
2017-03-29T14:32:27.467Z,21.28
2017-03-29T14:33:37.423Z,21.78
2017-03-29T14:34:47.380Z,22.03
2017-03-29T14:35:57.653Z,22.36
2017-03-29T14:37:07.613Z,22.33
2017-03-29T14:38:17.890Z,22.53
2017-03-29T14:39:28.162Z,22.81
2017-03-29T14:40:38.430Z,23.21
2017-03-29T14:41:48.398Z,23.16
2017-03-29T14:42:58.360Z,21.8
2017-03-29T14:44:08.638Z,20.9
2017-03-29T14:45:18.600Z,20.98
2017-03-29T14:46:28.874Z,20.95
2017-03-29T14:47:38.837Z,21.08
2017-03-29T14:48:48.484Z,21.56
2017-03-29T14:49:58.763Z,21.37
2017-03-29T14:51:09.040Z,21.1
2017-03-29T14:52:19.322Z,20.95
2017-03-29T14:53:29.288Z,20.7
2017-03-29T14:54:39.253Z,21.2
2017-03-29T14:55:48.905Z,21.66
2017-03-29T14:56:59.185Z,22.18
2017-03-29T14:58:09.148Z,22.58
2017-03-29T14:59:19.423Z,22.8
2017-03-29T15:00:29.390Z,23.14
2017-03-29T15:01:39.663Z,23.59
2017-03-29T15:02:49.938Z,24
2017-03-29T15:03:59.903Z,24.24
2017-03-29T15:05:10.183Z,24.44
2017-03-29T15:06:20.466Z,24.62
2017-03-29T15:07:30.118Z,24.84
2017-03-29T15:08:40.400Z,24.97
2017-03-29T15:09:50.684Z,25.16
2017-03-29T15:11:00.341Z,25.46
2017-03-29T15:12:10.624Z,25.77
2017-03-29T15:13:20.907Z,26.01
2017-03-29T15:14:31.180Z,25.91
2017-03-29T15:15:41.144Z,25.78
2017-03-29T15:16:51.109Z,26.04
2017-03-29T15:18:01.085Z,26.26
2017-03-29T15:19:11.059Z,26.33
2017-03-29T15:20:20.713Z,26.51
2017-03-29T15:21:30.676Z,26.06
2017-03-29T15:22:40.969Z,25.46
2017-03-29T15:23:50.928Z,25.07
2017-03-29T15:25:01.208Z,24.37
2017-03-29T15:26:11.486Z,24.04
2017-03-29T15:27:21.462Z,24.22
2017-03-29T15:28:31.426Z,24.28
2017-03-29T15:29:41.391Z,24.25
2017-03-29T15:30:51.671Z,23.77
2017-03-29T15:32:01.954Z,22.98